Flight Track Log - Related Links

Times and Time Zones

All times are in EDT time to prevent confusion due to time zone crossing. See the FFT532 flight status page for this flight to view local times or setup timezone preferences in your user account.


Time Position Orientation Groundspeed Altitude Reporting Facility
EDT Latitude Longitude Course Direction KTS MPH feet Rate Location/Type
Wed 10:38:33 AM 39.9167 -104.6833 27° Northeast 185 213 6,300  Level Denver TRACON
Wed 10:39:33 AM 39.9667 -104.6500 27° Northeast 228 262 7,400 1,450 Climbing Denver TRACON
Wed 10:40:33 AM 40.0167 -104.5833 46° Northeast 289 333 9,200 2,050 Climbing Denver TRACON
Wed 10:41:33 AM 40.1000 -104.5167 31° Northeast 313 360 11,500 2,361 Climbing Denver TRACON
Wed 10:43:08 AM 40.0658 -104.3492 105° East 322 371 15,300 2,255 Climbing Denver Center
Wed 10:44:10 AM 40.0319 -104.2347 111° Southeast 338 389 17,400 2,129 Climbing Denver Center
Wed 10:45:12 AM 40.0361 -104.0947 88° East 357 411 19,700 2,081 Climbing Denver Center
Wed 10:46:14 AM 40.0453 -103.9628 85° East 367 422 21,700 1,887 Climbing Denver Center
Wed 10:47:16 AM 40.0533 -103.8144 86° East 382 440 23,600 1,355 Climbing Denver Center
Wed 10:48:18 AM 40.0619 -103.6744 85° East 392 451 24,500 823 Climbing Denver Center
Wed 10:49:20 AM 40.0719 -103.5125 85° East 442 509 25,300 1,171 Climbing Denver Center
Wed 10:50:21 AM 40.0792 -103.3778 86° East 460 529 26,900 1,456 Climbing Denver Center
Wed 10:51:36 AM 40.0914 -103.1786 85° East 460 529 28,600 1,478 Climbing Denver Center
Wed 10:52:39 AM 40.1039 -102.9383 86° East 472 543 30,300 1,344 Climbing Denver Center
Wed 10:53:41 AM 40.1133 -102.7633 86° East 482 555 31,400 1,113 Climbing Denver Center
Wed 10:54:43 AM 40.1231 -102.5881 86° East 486 559 32,600 1,258 Climbing Denver Center
Wed 10:55:45 AM 40.1342 -102.3897 86° East 490 564 34,000 1,355 Climbing Denver Center
Wed 10:56:47 AM 40.1394 -102.2192 88° East 490 564 35,400 1,258 Climbing Denver Center
Wed 10:57:49 AM 40.1486 -102.0250 86° East 481 554 36,600 774 Climbing Denver Center
Wed 10:58:51 AM 40.1569 -101.8606 86° East 477 549 37,000 194 Climbing Denver Center
Wed 10:59:53 AM 40.1656 -101.6706 87° East 472 543 37,000  Level Denver Center
Wed 11:00:55 AM 40.1703 -101.5039 88° East 477 549 37,000  Level Denver Center
Wed 11:01:57 AM 40.1767 -101.3392 87° East 476 548 37,000  Level Denver Center
Wed 11:02:59 AM 40.1936 -101.1494 83° East 473 544 37,000  Level Denver Center
Wed 11:04:01 AM 40.2086 -100.9872 83° East 472 543 37,000  Level Denver Center
Wed 11:05:03 AM 40.2244 -100.7969 84° East 472 543 37,000  Level Denver Center
Wed 11:06:05 AM 40.2378 -100.6356 84° East 471 542 37,000  Level Denver Center
Wed 11:07:07 AM 40.2528 -100.4472 84° East 470 541 37,000  Level Denver Center
Wed 11:08:09 AM 40.2686 -100.2589 84° East 469 540 37,000  Level Denver Center
Wed 11:09:11 AM 40.2808 -100.0992 84° East 465 535 37,000  Level Denver Center
Wed 11:10:14 AM 40.2933 -99.9397 84° East 463 533 37,000  Level Denver Center
Wed 11:11:16 AM 40.3069 -99.7528 84° East 463 533 37,000  Level Denver Center
Wed 11:12:18 AM 40.3200 -99.5842 84° East 464 534 37,000  Level Denver Center
Wed 11:13:20 AM 40.3322 -99.4158 85° East 466 536 37,000  Level Denver Center
Wed 11:14:22 AM 40.3444 -99.2481 84° East 465 535 37,000  Level Denver Center
Wed 11:15:09 AM 40.3539 -99.1161 85° East 465 535 37,000  Level Minneapolis Center
Wed 11:16:11 AM 40.3675 -98.9158 85° East 464 534 37,000  Level Minneapolis Center
Wed 11:17:13 AM 40.3789 -98.7486 85° East 463 533 37,000  Level Minneapolis Center
Wed 11:18:15 AM 40.3892 -98.5814 85° East 463 533 37,000  Level Minneapolis Center
Wed 11:19:17 AM 40.4003 -98.4150 85° East 462 532 37,000  Level Minneapolis Center
Wed 11:20:19 AM 40.4103 -98.2472 85° East 463 533 37,000  Level Minneapolis Center
Wed 11:21:21 AM 40.4208 -98.0797 85° East 462 532 37,000  Level Minneapolis Center
Wed 11:22:23 AM 40.4325 -97.8778 86° East 464 534 37,000  Level Minneapolis Center
Wed 11:23:24 AM 40.4425 -97.7108 85° East 463 533 37,000  Level Minneapolis Center
Wed 11:24:26 AM 40.4519 -97.5436 86° East 462 532 37,000  Level Minneapolis Center
Wed 11:25:28 AM 40.4611 -97.3772 86° East 460 529 37,000  Level Minneapolis Center
Wed 11:26:30 AM 40.4700 -97.2103 86° East 459 528 37,000  Level Minneapolis Center
Wed 11:27:32 AM 40.4792 -97.0417 86° East 461 531 37,000  Level Minneapolis Center
Wed 11:28:34 AM 40.4886 -96.8533 86° East 460 529 37,000  Level Minneapolis Center
Wed 11:29:36 AM 40.4964 -96.6853 86° East 462 532 37,000  Level Minneapolis Center
Wed 11:30:38 AM 40.5044 -96.5164 86° East 464 534 37,000  Level Minneapolis Center
Wed 11:31:39 AM 40.5119 -96.3500 87° East 462 532 37,000  Level Minneapolis Center
Wed 11:32:41 AM 40.5231 -96.1817 85° East 462 532 37,000  Level Minneapolis Center
Wed 11:33:43 AM 40.5492 -95.9831 80° East 462 532 37,000  Level Minneapolis Center
Wed 11:34:45 AM 40.5692 -95.8167 81° East 464 534 37,000  Level Minneapolis Center
Wed 11:35:46 AM 40.5897 -95.6514 81° East 462 532 37,000  Level Minneapolis Center
Wed 11:36:48 AM 40.6100 -95.4856 81° East 462 532 37,000  Level Minneapolis Center
Wed 11:37:50 AM 40.6303 -95.3186 81° East 464 534 37,000  Level Minneapolis Center
Wed 11:38:52 AM 40.6506 -95.1511 81° East 465 535 37,000  Level Minneapolis Center
Wed 11:39:53 AM 40.6744 -94.9500 81° East 465 535 37,000  Level Minneapolis Center
Wed 11:40:55 AM 40.6922 -94.7847 82° East 462 532 37,000  Level Minneapolis Center
Wed 11:41:57 AM 40.7106 -94.6178 82° East 461 531 37,000  Level Minneapolis Center
Wed 11:42:59 AM 40.7283 -94.4653 81° East 463 533 37,000  Level Minneapolis Center
Wed 11:44:00 AM 40.7492 -94.2650 82° East 464 534 37,000  Level Minneapolis Center
Wed 11:45:02 AM 40.7667 -94.0972 82° East 464 534 37,000  Level Minneapolis Center
Wed 11:46:04 AM 40.7842 -93.9306 82° East 463 533 37,000  Level Minneapolis Center
Wed 11:47:06 AM 40.8028 -93.7644 82° East 462 532 37,000  Level Minneapolis Center
Wed 11:48:08 AM 40.8200 -93.5992 82° East 459 528 37,000  Level Minneapolis Center
Wed 11:49:10 AM 40.8364 -93.4328 83° East 459 528 37,000  Level Minneapolis Center
Wed 11:50:12 AM 40.8572 -93.2322 82° East 460 529 37,000 -293 Level Minneapolis Center
Wed 11:51:13 AM 40.8739 -93.0644 82° East 461 531 36,400 -744 Descending Minneapolis Center
Wed 11:52:21 AM 40.8906 -92.8972 82° East 457 526 35,400 -651 Descending Chicago Center
Wed 11:53:22 AM 40.9086 -92.7011 83° East 451 519 35,000 -488 Descending Chicago Center
Wed 11:54:24 AM 40.9242 -92.5372 83° East 450 518 34,400 -677 Descending Chicago Center
Wed 11:55:26 AM 40.9397 -92.3750 83° East 448 516 33,600 -774 Descending Chicago Center
Wed 11:56:28 AM 40.9533 -92.2161 83° East 440 506 32,800 -774 Descending Chicago Center
Wed 11:57:30 AM 40.9683 -92.0589 83° East 435 501 32,000 -774 Descending Chicago Center
Wed 11:58:32 AM 40.9814 -91.9000 84° East 436 502 31,200 -484 Descending Chicago Center
Wed 11:59:34 AM 40.9944 -91.7447 84° East 430 495 31,000 -194 Descending Chicago Center
Wed 12:00:36 PM 41.0092 -91.5753 83° East 446 513 30,800 -1,065 Descending Chicago Center
Wed 12:01:38 PM 41.0258 -91.3797 83° East 446 513 28,800 -2,244 Descending Chicago Center
Wed 12:02:39 PM 41.0392 -91.2214 84° East 436 502 26,200 -2,244 Descending Chicago Center
Wed 12:03:41 PM 41.0517 -91.0636 84° East 431 496 24,200 -1,887 Descending Chicago Center
Wed 12:04:43 PM 41.0644 -90.9114 84° East 419 482 22,300 -1,548 Descending Chicago Center
Wed 12:05:45 PM 41.0753 -90.7681 84° East 393 452 21,000 -629 Descending Chicago Center
Wed 12:06:47 PM 41.0858 -90.6358 84° East 367 422 21,000  Level Chicago Center
Wed 12:07:49 PM 41.0950 -90.5047 85° East 358 412 21,000  Level Chicago Center
Wed 12:08:51 PM 41.1064 -90.3433 85° East 364 419 21,000  Level Chicago Center
Wed 12:09:53 PM 41.1167 -90.2119 84° East 358 412 21,000 -145 Level Chicago Center
Wed 12:10:55 PM 41.1256 -90.0797 85° East 358 412 20,700 -968 Descending Chicago Center
Wed 12:11:57 PM 41.1361 -89.9472 84° East 359 413 19,000 -1,645 Descending Chicago Center
Wed 12:12:59 PM 41.1442 -89.8150 85° East 357 411 17,300 -1,500 Descending Chicago Center
Wed 12:14:01 PM 41.1539 -89.6858 84° East 351 404 15,900 -1,258 Descending Chicago Center
Wed 12:15:03 PM 41.1625 -89.5614 85° East 340 391 14,700 -1,024 Descending Chicago Center
Wed 12:16:04 PM 41.1708 -89.4386 85° East 334 384 13,800 -732 Descending Chicago Center
Wed 12:17:06 PM 41.1808 -89.2906 85° East 334 384 13,200 -581 Descending Chicago Center
Wed 12:18:08 PM 41.1889 -89.1656 85° East 329 379 12,600 -629 Descending Chicago Center
Wed 12:19:10 PM 41.1961 -89.0458 85° East 327 376 11,900 -677 Descending Chicago Center
Wed 12:20:12 PM 41.2033 -88.9272 85° East 326 375 11,200 -774 Descending Chicago Center
Wed 12:21:14 PM 41.2442 -88.8292 61° Northeast 321 369 10,300 -823 Descending Chicago Center
Wed 12:22:16 PM 41.2967 -88.7403 52° Northeast 307 353 9,500 -968 Descending Chicago Center
Wed 12:23:18 PM 41.3594 -88.6353 51° Northeast 303 349 8,300 -1,248 Descending Chicago Center
Wed 12:24:21 PM 41.4114 -88.5478 52° Northeast 303 349 6,900 -1,104 Descending Chicago Center
Wed 12:25:23 PM 41.4622 -88.4617 52° Northeast 300 345 6,000 -435 Descending Chicago Center
Wed 12:26:25 PM 41.4989 -88.3658 63° Northeast 298 343 6,000 -290 Level Chicago Center
Wed 12:27:27 PM 41.5186 -88.2594 76° East 295 339 5,400 -484 Descending Chicago Center
Wed 12:28:29 PM 41.5381 -88.1514 76° East 298 343 5,000 -192 Descending Chicago Center
Wed 12:29:32 PM 41.5578 -88.0458 76° East 293 337 5,000  Level Chicago Center
Wed 12:30:33 PM 41.5767 -87.9394 77° East 291 335 5,000 -98 Level Chicago Center
Wed 12:31:35 PM 41.5833 -87.8108 86° East 290 334 4,800 -435 Descending Chicago Center
Wed 12:32:37 PM 41.5900 -87.7086 85° East 284 327 4,100 -435 Descending Chicago Center
Wed 12:33:39 PM 41.6103 -87.6292 71° East 258 297 3,900 -339 Descending Chicago Center
Wed 12:34:41 PM 41.6567 -87.5925 31° Northeast 230 265 3,400 -629 Descending Chicago Center
Wed 12:35:43 PM 41.6981 -87.6300 326° Northwest 203 234 2,600 -768 Descending Chicago Center
Wed 12:36:46 PM 41.7383 -87.6872 313° West 186 214 1,800 -480 Descending Chicago Center
Wed 12:37:48 PM 41.7731 -87.6731 17° North 171 197 1,600 -145 Descending Chicago Center
Wed 12:38:50 PM 41.8103 -87.6953 336° Northwest 161 185 1,500 -242 Descending Chicago Center
Wed 12:39:52 PM 41.7975 -87.7431 250° West 146 168 1,100 -387 Descending Chicago Center

Login

Don't have an account? Register now (free) for customized features, flight alerts, and more!